Clinton, NC

12:46 PM EDT on April 18, 2015 (GMT -0400)
Sampson County | | Change Station
CLOSE
Current Station
Airport
Location: Clinton,
Elevation: 148 ft
Nearby Weather Stations

Elev 148 ft 34.98 °N, 78.36 °W | Updated 11 minutes ago

Mostly Cloudy
Mostly Cloudy
74 °F
Feels Like 74 °F
N
4
Wind Variable Wind from ESE

Today
High -- | Low -- °F
--% Chance of Precip.
Yesterday
High -- | Low -- °F
Precip. -- in
6:37 AM 7:48 PM
Waning Crescent, 0% visible
Pressure 30.00 in
Visibility 10.0 miles
Clouds Mostly Cloudy 2000 ft
Mostly Cloudy 3900 ft
Mostly Cloudy 7500 ft
Dew Point 67 °F
Humidity 81%
Rainfall 0.03 in
Snow Depth Not available.
UV 6 out of 12
Pollen 7.50 out of 12
Air Quality Not available.
Flu Activity Sporadic
METAR KCTZ 181635Z AUTO 11003KT 10SM BKN020 BKN039 BKN075 23/20 A3000 RMK AO2 T02310196

More Conditions Fewer Conditions

Pressure 30.00 in
Visibility 10.0 miles
Clouds Mostly Cloudy 2000 ft
Mostly Cloudy 3900 ft
Mostly Cloudy 7500 ft
Dew Point 67 °F
Humidity 81%
Rainfall 0.03 in
Snow Depth Not available.
UV 6 out of 12
Pollen 7.50 out of 12
Air Quality Not available.
Flu Activity Sporadic
METAR KCTZ 181635Z AUTO 11003KT 10SM BKN020 BKN039 BKN075 23/20 A3000 RMK AO2 T02310196

More Conditions Fewer Conditions

10-Day Weather Forecast

Almanac

Astronomy

Apr. 18, 2015 Rise Set
Actual Time
Civil Twilight
Nautical Twilight
Astronomical Twilight
Moon
Length of Visible Light
Length of Day
Tomorrow will be .
, % of the Moon is Illuminated

Today's Extremes

State Highs State Lows

Community

WunderPhotos

Upload Photos

1,814,457 photos uploaded!

WunderBlogs® & News

Nearby

Air Quality

  Air Quality AQ Index Pollutant
Not available.

Snow Depth

Station Depth Elevation

Earthquake Activity

City Distance Mag. Time & Date
Minimum magnitude displayed is 2.5.

Coastal Water Temperatures

Place Temperature

Stations

Nearby Weather Stations

Station Location Temp. Windchill Dew Point Humidity Wind Precip. Elev Updated Type